Airfield :
LOGIN :

Register | Disclaimer

   EN    FR    IT 

 










Legend :    VFR   Marginal VFR   IFR   Intensive IFR   Very Intensive IFR
Visi :
Ceiling :
>= 8 km
>= 3000ft
5 to 8 km
1000 to 3000 ft
1500m to 5 km
500 to 1000 ft
800 to 1500m
200 to 500 ft
< 800m
< 200 ft
Symbols :   Thunderstorms  Fog  Heavy snow  Heavy precipitations  Wind > 20 kt
SIGMETs :     Misc.  Thunderstorms  Icing  Turbulence  Mountain Waves  Volcanic Ashes







- Airport Elevation : 1682 ft
- IATA code : VIT


LEVT - Vitoria Gasteiz

CURRENT METAR :
  • 171400Z 03007KT 010V070 9999 FEW040TCU 27/15 Q1017

EXPIRED METARs :
  • 171330Z VRB03KT 9999 SCT040TCU 27/16 Q1018
  • 171300Z 17001KT 9999 SCT035TCU 27/16 Q1018
  • 171230Z 03003KT 320V120 9999 FEW035TCU 27/15 Q1018
  • 171200Z 36002KT 9999 FEW030TCU 26/15 Q1019
  • 171130Z 02002KT 9999 FEW030TCU 25/16 Q1019

TAF TAF LEVT
Valid from the 17 at 12:00 until the 18 at 12:00 UTC


171100Z 1712/1812 01008KT 9999 FEW040 TX27/1714Z TN15/1806Z
PROB40
TEMPO 1712/1721 VRB15G25KT SHRA TS SCT025TCU SCT030CB
PROB40
TEMPO 1803/1807 3000 SHRA TS SCT025TCU SCT030CB
No reported NOTAMs for that airfield.



MET'MAP, your aeronautical weather chart ! - Copyright ORBIFLY December 2007 - Disclaimer

ORBIFLY MET'MAP TEAM :

Programming & Development : Alexandra Zaïnal
Concept & Development : Baudouin d'Aumeries
Co-Development & Prog : Marc-Olivier Méhu
Technical & hardware support : Manuel Goepfert

Contact : metmap@orbifly.com




SOURCES & CREDITS :

   NOAA